首页
METAR-TAF:

METAR-TAF

机场 :

Pitt-Greenville Airport

格林维尔, 北卡罗来纳州, 美国

纬度: 35-38N, 经度: 077-24W, 海拔: 8米

当前天气观测

该预报发布于6分钟前的14:10 UTC
静风
温度 25°C
湿度 83%
气压 1018 hPa
能見度: 16.1公里
多云层高于1100英尺

METAR: KPGV 201410Z AUTO 00000KT 10SM BKN011 25/22 A3007 RMK AO2

时间: 10:16 (14:16 UTC)

预报

该预报发布于45分钟前的13:31 UTC
预报有效从20日的 14点(UTC)到 21日的 12点(UTC)
风速3节,风向多变
能見度: 10公里
多云层高于1500英尺
从 20日的 1500点(UTC)
风速5节,风向西南
能見度: 10公里
多云层高于3000英尺
附近有阵雨
短暂存在
从 20日的 15点(UTC)到 20日的 17点(UTC)
能見度: 6.4公里
阴天层高于1500英尺, 积雨云.
雷暴
从 20日的 1700点(UTC)
风速5节,风向西南
能見度: 10公里
多云层高于3500英尺
附近有阵雨
短暂存在
从 20日的 17点(UTC)到 20日的 21点(UTC)
能見度: 6.4公里
阴天层高于2500英尺, 积雨云.
雷暴
从 20日的 2100点(UTC)
风速5节,风向西南
能見度: 10公里
多云层高于4500英尺
从 21日的 0000点(UTC)
风速节,风向
能見度: 10公里
多云层高于5000英尺

TAF: KPGV 201331Z 2014/2112 VRB03KT P6SM BKN015 FM201500 22005KT P6SM VCSH BKN030 TEMPO 2015/2017 4SM TS OVC015CB FM201700 23005KT P6SM VCSH BKN035 TEMPO 2017/2021 4SM TS OVC025CB FM202100 22005KT P6SM BKN045 FM210000 00000KT P6SM BKN050 AMD LTD TO CLD VIS AND WIND

超过4000个机场的气象观测和天气预报(METAR&TAF报告)。

可查询的气象台以黄色和红色小点在地图上表示。

将鼠标移到小点上方,可查看气象台名称。

然后点击查看天气观测和预报。

如需切换地图:点击带黑十字的绿色按钮放大地图;点击带横线的绿色按钮缩小地图;或者点击绿色箭头查看邻近地区的地图。


METAR-TAF: